createdAt,value
2023-01-29T00:01:23.263Z,11.02
2023-01-29T00:06:26.311Z,14.93
2023-01-29T00:11:28.145Z,11.48
2023-01-29T00:16:29.718Z,12.98
2023-01-29T00:21:32.243Z,12.57
2023-01-29T00:26:33.744Z,13.13
2023-01-29T00:31:35.336Z,14.40
2023-01-29T00:36:36.857Z,11.75
2023-01-29T00:42:00.176Z,13.05
2023-01-29T00:47:02.126Z,13.05
2023-01-29T00:52:22.359Z,14.38
2023-01-29T00:57:26.122Z,13.73
2023-01-29T01:02:47.156Z,13.15
2023-01-29T01:07:51.421Z,13.45
2023-01-29T01:12:58.733Z,14.02
2023-01-29T01:18:01.909Z,14.23
2023-01-29T01:23:03.547Z,13.63
2023-01-29T01:28:05.111Z,14.43
2023-01-29T01:33:06.557Z,13.85
2023-01-29T01:38:08.036Z,13.50
2023-01-29T01:43:10.166Z,15.07
2023-01-29T01:48:17.375Z,14.68
2023-01-29T01:53:27.016Z,15.85
2023-01-29T01:58:35.077Z,15.15
2023-01-29T02:04:04.035Z,13.68
2023-01-29T02:09:30.171Z,13.80
2023-01-29T02:14:32.160Z,14.30
2023-01-29T02:19:47.318Z,16.10
2023-01-29T02:25:15.907Z,15.52
2023-01-29T02:30:27.570Z,16.27
2023-01-29T02:35:39.013Z,16.77
2023-01-29T02:40:45.482Z,15.80
2023-01-29T02:45:54.215Z,16.70
2023-01-29T02:51:08.905Z,15.38
2023-01-29T02:56:16.329Z,13.43
2023-01-29T03:01:23.401Z,16.30
2023-01-29T03:06:33.108Z,16.88
2023-01-29T03:11:41.424Z,18.33
2023-01-29T03:16:49.348Z,16.60
2023-01-29T03:21:59.534Z,14.93
2023-01-29T03:27:22.702Z,14.77
2023-01-29T03:32:28.808Z,16.60
2023-01-29T03:37:37.646Z,16.77
2023-01-29T03:42:44.821Z,15.77
2023-01-29T03:47:56.606Z,19.00
2023-01-29T03:53:20.880Z,16.13
2023-01-29T03:58:34.942Z,19.63
2023-01-29T04:03:44.714Z,14.68
2023-01-29T04:08:51.376Z,18.42
2023-01-29T04:13:53.559Z,15.75
2023-01-29T04:18:55.549Z,18.20
2023-01-29T04:23:57.031Z,17.02
2023-01-29T04:29:17.496Z,12.27
2023-01-29T04:34:28.347Z,16.95
2023-01-29T04:39:56.434Z,17.40
2023-01-29T04:45:19.037Z,17.17
2023-01-29T04:50:35.435Z,18.65
2023-01-29T04:55:52.663Z,17.33
2023-01-29T05:00:54.840Z,15.52
2023-01-29T05:05:58.459Z,18.02
2023-01-29T05:11:01.131Z,17.00
2023-01-29T05:16:14.486Z,18.08
2023-01-29T05:21:16.318Z,16.85
2023-01-29T05:26:36.365Z,17.65
2023-01-29T05:31:37.848Z,17.83
2023-01-29T05:36:39.322Z,18.40
2023-01-29T05:41:40.860Z,19.30
2023-01-29T05:46:42.320Z,20.48
2023-01-29T05:51:44.384Z,18.45
2023-01-29T05:56:45.852Z,22.10
2023-01-29T06:01:47.280Z,21.77
2023-01-29T06:06:48.731Z,21.27
2023-01-29T06:11:50.186Z,21.67
2023-01-29T06:16:51.575Z,18.45
2023-01-29T06:21:53.190Z,19.35
2023-01-29T06:26:54.682Z,22.38
2023-01-29T06:31:56.252Z,21.52
2023-01-29T06:36:57.762Z,21.60
2023-01-29T06:41:59.199Z,22.08
2023-01-29T06:47:00.864Z,18.40
2023-01-29T06:52:02.261Z,20.52
2023-01-29T06:57:03.692Z,15.45
2023-01-29T07:02:05.178Z,15.25
2023-01-29T07:07:12.762Z,19.20
2023-01-29T07:12:14.223Z,19.15
2023-01-29T07:17:15.761Z,19.98
2023-01-29T07:22:17.167Z,19.13
2023-01-29T07:27:18.596Z,19.48
2023-01-29T07:32:20.030Z,17.98
2023-01-29T07:37:21.448Z,19.65
2023-01-29T07:42:23.558Z,20.55
2023-01-29T07:47:24.987Z,19.00
2023-01-29T07:52:26.616Z,21.15
2023-01-29T07:57:28.149Z,21.40
2023-01-29T08:02:29.658Z,21.30
2023-01-29T08:07:31.225Z,19.90
2023-01-29T08:12:32.663Z,21.73
2023-01-29T08:17:34.797Z,19.58
2023-01-29T08:22:36.304Z,20.10
2023-01-29T08:27:37.809Z,19.75
2023-01-29T08:32:39.235Z,17.42
2023-01-29T08:37:40.838Z,18.08
2023-01-29T08:42:42.414Z,17.60
2023-01-29T08:47:48.313Z,18.27
2023-01-29T08:52:49.750Z,18.98
2023-01-29T08:57:51.491Z,18.10
2023-01-29T09:02:53.007Z,17.00
2023-01-29T09:07:56.839Z,17.10
2023-01-29T09:12:58.498Z,16.10
2023-01-29T09:18:04.055Z,16.25
2023-01-29T09:23:07.624Z,15.70
2023-01-29T09:28:09.077Z,9.52
2023-01-29T09:33:10.542Z,15.18
2023-01-29T09:38:12.004Z,13.98
2023-01-29T09:43:18.674Z,17.13
2023-01-29T09:48:23.456Z,15.73
2023-01-29T09:53:32.626Z,16.48
2023-01-29T09:58:38.547Z,15.57
2023-01-29T10:03:59.698Z,15.23
2023-01-29T10:09:39.130Z,16.50
2023-01-29T10:15:02.966Z,13.82
2023-01-29T10:20:30.600Z,14.25
2023-01-29T10:25:37.285Z,14.63
2023-01-29T10:30:44.264Z,10.90
2023-01-29T10:41:10.946Z,13.57
2023-01-29T10:46:45.346Z,13.88
2023-01-29T10:51:52.831Z,15.10
2023-01-29T10:57:20.539Z,14.35
2023-01-29T11:02:22.704Z,14.68
2023-01-29T11:07:25.183Z,14.60
2023-01-29T11:12:32.103Z,14.55
2023-01-29T11:22:35.819Z,14.40
2023-01-29T11:27:50.372Z,14.60
2023-01-29T11:33:20.059Z,15.95
2023-01-29T11:38:27.149Z,13.93
2023-01-29T11:43:34.123Z,15.73
2023-01-29T11:53:46.218Z,13.18
2023-01-29T11:58:50.520Z,18.45
2023-01-29T12:03:54.430Z,18.25
2023-01-29T12:08:58.609Z,13.02
2023-01-29T12:14:06.658Z,14.98
2023-01-29T12:19:27.467Z,17.40
2023-01-29T12:24:36.297Z,19.13
2023-01-29T12:29:49.538Z,16.40
2023-01-29T12:34:59.056Z,14.68
2023-01-29T12:40:04.039Z,8.25
2023-01-29T12:45:11.056Z,20.85
2023-01-29T12:50:30.084Z,17.42
2023-01-29T12:55:34.339Z,12.23
2023-01-29T13:00:42.088Z,20.20
2023-01-29T13:06:11.192Z,21.88
2023-01-29T13:11:22.396Z,20.17
2023-01-29T13:16:31.917Z,19.60
2023-01-29T13:21:42.315Z,22.52
2023-01-29T13:26:48.982Z,19.95
2023-01-29T13:32:03.909Z,23.42
2023-01-29T13:37:31.733Z,21.98
2023-01-29T13:42:47.175Z,19.98
2023-01-29T13:47:51.022Z,20.92
2023-01-29T13:52:56.438Z,20.52
2023-01-29T13:58:02.310Z,18.83
2023-01-29T14:03:04.797Z,22.63
2023-01-29T14:08:35.795Z,18.60
2023-01-29T14:13:37.288Z,20.35
2023-01-29T14:18:47.757Z,19.77
2023-01-29T14:24:08.018Z,22.48
2023-01-29T14:29:18.803Z,18.88
2023-01-29T14:34:28.123Z,20.20
2023-01-29T14:39:44.365Z,21.00
2023-01-29T14:44:45.837Z,19.50
2023-01-29T14:49:53.823Z,20.60
2023-01-29T14:55:01.889Z,20.60
2023-01-29T15:00:13.498Z,19.67
2023-01-29T15:05:19.518Z,20.63
2023-01-29T15:10:33.308Z,20.77
2023-01-29T15:15:50.676Z,21.90
2023-01-29T15:21:05.830Z,21.65
2023-01-29T15:26:11.870Z,22.50
2023-01-29T15:31:18.617Z,24.17
2023-01-29T15:36:28.134Z,20.55
2023-01-29T15:41:29.500Z,22.40
2023-01-29T15:46:36.417Z,20.35
2023-01-29T15:56:54.172Z,24.27
2023-01-29T16:01:56.981Z,22.27
2023-01-29T16:07:00.485Z,24.48
2023-01-29T16:12:02.244Z,22.02
2023-01-29T16:17:22.650Z,22.27
2023-01-29T16:22:26.730Z,21.70
2023-01-29T16:27:29.254Z,21.85
2023-01-29T16:32:31.551Z,20.77
2023-01-29T16:37:36.385Z,22.70
2023-01-29T16:42:39.588Z,19.33
2023-01-29T16:47:41.571Z,19.38
2023-01-29T16:53:01.568Z,19.85
2023-01-29T16:58:10.735Z,21.13
2023-01-29T17:03:14.708Z,21.60
2023-01-29T17:08:27.042Z,21.10
2023-01-29T17:13:42.744Z,19.13
2023-01-29T17:18:45.037Z,18.90
2023-01-29T17:23:46.559Z,19.25
2023-01-29T17:28:52.333Z,17.42
2023-01-29T17:33:56.141Z,16.58
2023-01-29T17:39:00.355Z,18.55
2023-01-29T17:44:01.783Z,19.30
2023-01-29T17:49:09.798Z,18.38
2023-01-29T17:54:11.260Z,17.88
2023-01-29T17:59:19.788Z,18.67
2023-01-29T18:04:21.749Z,18.52
2023-01-29T18:09:23.424Z,17.63
2023-01-29T18:14:25.881Z,16.98
2023-01-29T18:19:31.255Z,18.33
2023-01-29T18:24:33.984Z,14.00
2023-01-29T18:29:35.585Z,17.17
2023-01-29T18:34:38.710Z,18.92
2023-01-29T18:39:40.142Z,15.15
2023-01-29T18:44:41.741Z,17.52
2023-01-29T18:49:43.188Z,17.45
2023-01-29T18:54:44.606Z,17.95
2023-01-29T18:59:47.388Z,18.58
2023-01-29T19:04:52.051Z,19.48
2023-01-29T19:09:54.061Z,20.15
2023-01-29T19:14:57.870Z,14.40
2023-01-29T19:20:02.423Z,18.13
2023-01-29T19:25:04.790Z,17.20
2023-01-29T19:30:06.977Z,18.27
2023-01-29T19:35:08.516Z,12.43
2023-01-29T19:40:11.659Z,16.45
2023-01-29T19:45:14.745Z,14.80
2023-01-29T19:50:16.815Z,16.73
2023-01-29T19:55:19.964Z,17.90
2023-01-29T20:00:21.933Z,15.23
2023-01-29T20:05:24.065Z,14.88
2023-01-29T20:10:27.569Z,18.08
2023-01-29T20:15:29.154Z,13.93
2023-01-29T20:20:32.689Z,17.25
2023-01-29T20:25:36.133Z,16.75
2023-01-29T20:30:38.571Z,20.77
2023-01-29T20:35:40.339Z,15.70
2023-01-29T20:40:49.831Z,18.17
2023-01-29T20:45:51.347Z,19.75
2023-01-29T20:50:54.055Z,18.42
2023-01-29T20:55:55.509Z,18.15
2023-01-29T21:00:57.045Z,20.67
2023-01-29T21:05:59.212Z,18.20
2023-01-29T21:11:01.571Z,11.52
2023-01-29T21:16:04.914Z,18.55
2023-01-29T21:21:07.346Z,19.73
2023-01-29T21:26:09.132Z,20.88
2023-01-29T21:31:14.719Z,19.33
2023-01-29T21:36:16.236Z,11.15
2023-01-29T21:41:17.899Z,16.55
2023-01-29T21:46:19.407Z,10.93
2023-01-29T21:51:23.316Z,17.00
2023-01-29T21:56:24.813Z,11.60
2023-01-29T22:01:37.360Z,20.00
2023-01-29T22:06:39.973Z,21.55
2023-01-29T22:11:41.714Z,23.30
2023-01-29T22:16:43.250Z,22.77
2023-01-29T22:21:44.924Z,22.80
2023-01-29T22:26:48.494Z,23.17
2023-01-29T22:31:52.351Z,20.50
2023-01-29T22:36:56.481Z,21.23
2023-01-29T22:41:58.087Z,23.35
2023-01-29T22:47:07.325Z,19.35
2023-01-29T22:52:13.913Z,22.27
2023-01-29T22:57:16.809Z,23.80
2023-01-29T23:02:18.284Z,16.90
2023-01-29T23:07:19.718Z,18.38
2023-01-29T23:12:21.192Z,19.88
2023-01-29T23:17:22.685Z,20.27
2023-01-29T23:22:25.167Z,21.40
2023-01-29T23:27:26.586Z,18.90
2023-01-29T23:32:28.263Z,20.75
2023-01-29T23:37:29.685Z,21.67
2023-01-29T23:42:31.276Z,17.48
2023-01-29T23:47:32.890Z,22.13
2023-01-29T23:52:36.627Z,16.80
2023-01-29T23:57:38.228Z,19.02
